sensor_id;sensor_type;location;lat;lon;timestamp;temperature;humidity
68578;SHT31;61668;45.388;11.784;2023-03-14T00:02:07;11.93;71.03
68578;SHT31;61668;45.388;11.784;2023-03-14T00:04:32;11.91;71.03
68578;SHT31;61668;45.388;11.784;2023-03-14T00:06:58;11.90;71.11
68578;SHT31;61668;45.388;11.784;2023-03-14T00:09:24;11.90;71.18
68578;SHT31;61668;45.388;11.784;2023-03-14T00:11:52;11.90;71.07
68578;SHT31;61668;45.388;11.784;2023-03-14T00:14:18;11.90;71.13
68578;SHT31;61668;45.388;11.784;2023-03-14T00:16:47;11.89;71.15
68578;SHT31;61668;45.388;11.784;2023-03-14T00:19:13;11.89;71.26
68578;SHT31;61668;45.388;11.784;2023-03-14T00:21:40;11.88;71.33
68578;SHT31;61668;45.388;11.784;2023-03-14T00:24:06;11.87;71.39
68578;SHT31;61668;45.388;11.784;2023-03-14T00:26:32;11.85;71.31
68578;SHT31;61668;45.388;11.784;2023-03-14T00:28:58;11.82;71.31
68578;SHT31;61668;45.388;11.784;2023-03-14T00:31:24;11.77;71.28
68578;SHT31;61668;45.388;11.784;2023-03-14T00:33:51;11.73;71.30
68578;SHT31;61668;45.388;11.784;2023-03-14T00:36:19;11.68;71.43
68578;SHT31;61668;45.388;11.784;2023-03-14T00:38:47;11.63;71.54
68578;SHT31;61668;45.388;11.784;2023-03-14T00:41:16;11.58;71.57
68578;SHT31;61668;45.388;11.784;2023-03-14T00:43:47;11.53;71.65
68578;SHT31;61668;45.388;11.784;2023-03-14T00:46:14;11.48;71.69
68578;SHT31;61668;45.388;11.784;2023-03-14T00:48:39;11.43;71.84
68578;SHT31;61668;45.388;11.784;2023-03-14T00:51:06;11.38;72.00
68578;SHT31;61668;45.388;11.784;2023-03-14T00:53:37;11.34;72.00
68578;SHT31;61668;45.388;11.784;2023-03-14T00:56:04;11.31;72.09
68578;SHT31;61668;45.388;11.784;2023-03-14T00:58:32;11.28;72.12
68578;SHT31;61668;45.388;11.784;2023-03-14T01:00:58;11.27;72.24
68578;SHT31;61668;45.388;11.784;2023-03-14T01:03:24;11.26;72.42
68578;SHT31;61668;45.388;11.784;2023-03-14T01:05:50;11.26;72.50
68578;SHT31;61668;45.388;11.784;2023-03-14T01:08:15;11.27;72.60
68578;SHT31;61668;45.388;11.784;2023-03-14T01:10:41;11.27;72.70
68578;SHT31;61668;45.388;11.784;2023-03-14T01:13:08;11.28;72.76
68578;SHT31;61668;45.388;11.784;2023-03-14T01:15:34;11.28;72.84
68578;SHT31;61668;45.388;11.784;2023-03-14T01:18:02;11.28;72.97
68578;SHT31;61668;45.388;11.784;2023-03-14T01:20:29;11.27;73.13
68578;SHT31;61668;45.388;11.784;2023-03-14T01:22:55;11.25;73.24
68578;SHT31;61668;45.388;11.784;2023-03-14T01:25:20;11.24;73.34
68578;SHT31;61668;45.388;11.784;2023-03-14T01:27:46;11.21;73.45
68578;SHT31;61668;45.388;11.784;2023-03-14T01:30:12;11.19;73.62
68578;SHT31;61668;45.388;11.784;2023-03-14T01:32:39;11.16;73.79
68578;SHT31;61668;45.388;11.784;2023-03-14T01:35:05;11.13;73.80
68578;SHT31;61668;45.388;11.784;2023-03-14T01:37:31;11.10;73.82
68578;SHT31;61668;45.388;11.784;2023-03-14T01:39:57;11.05;73.91
68578;SHT31;61668;45.388;11.784;2023-03-14T01:42:23;11.01;74.02
68578;SHT31;61668;45.388;11.784;2023-03-14T01:44:53;10.97;74.05
68578;SHT31;61668;45.388;11.784;2023-03-14T01:47:21;10.94;74.15
68578;SHT31;61668;45.388;11.784;2023-03-14T01:49:53;10.90;74.21
68578;SHT31;61668;45.388;11.784;2023-03-14T01:52:36;10.85;74.24
68578;SHT31;61668;45.388;11.784;2023-03-14T01:55:12;10.82;74.38
68578;SHT31;61668;45.388;11.784;2023-03-14T01:57:47;10.79;74.53
68578;SHT31;61668;45.388;11.784;2023-03-14T02:00:19;10.76;74.68
68578;SHT31;61668;45.388;11.784;2023-03-14T02:02:49;10.75;74.78
68578;SHT31;61668;45.388;11.784;2023-03-14T02:05:23;10.74;74.85
68578;SHT31;61668;45.388;11.784;2023-03-14T02:07:58;10.74;75.01
68578;SHT31;61668;45.388;11.784;2023-03-14T02:10:34;10.73;75.19
68578;SHT31;61668;45.388;11.784;2023-03-14T02:13:06;10.73;75.29
68578;SHT31;61668;45.388;11.784;2023-03-14T02:15:32;10.73;75.31
68578;SHT31;61668;45.388;11.784;2023-03-14T02:17:59;10.73;75.26
68578;SHT31;61668;45.388;11.784;2023-03-14T02:23:20;10.77;75.40
68578;SHT31;61668;45.388;11.784;2023-03-14T02:26:28;10.78;75.47
68578;SHT31;61668;45.388;11.784;2023-03-14T02:29:09;10.80;75.40
68578;SHT31;61668;45.388;11.784;2023-03-14T02:31:35;10.82;75.35
68578;SHT31;61668;45.388;11.784;2023-03-14T02:34:01;10.83;75.28
68578;SHT31;61668;45.388;11.784;2023-03-14T02:36:28;10.84;75.27
68578;SHT31;61668;45.388;11.784;2023-03-14T02:41:39;10.87;75.38
68578;SHT31;61668;45.388;11.784;2023-03-14T02:44:06;10.89;75.43
68578;SHT31;61668;45.388;11.784;2023-03-14T02:46:32;10.90;75.46
68578;SHT31;61668;45.388;11.784;2023-03-14T02:49:03;10.92;75.40
68578;SHT31;61668;45.388;11.784;2023-03-14T02:51:33;10.94;75.41
68578;SHT31;61668;45.388;11.784;2023-03-14T02:53:59;10.97;75.45
68578;SHT31;61668;45.388;11.784;2023-03-14T02:56:25;10.98;75.50
68578;SHT31;61668;45.388;11.784;2023-03-14T02:58:50;10.99;75.51
68578;SHT31;61668;45.388;11.784;2023-03-14T03:01:16;11.01;75.60
68578;SHT31;61668;45.388;11.784;2023-03-14T03:03:42;11.03;75.74
68578;SHT31;61668;45.388;11.784;2023-03-14T03:06:08;11.05;75.86
68578;SHT31;61668;45.388;11.784;2023-03-14T03:08:33;11.06;75.97
68578;SHT31;61668;45.388;11.784;2023-03-14T03:10:59;11.08;76.07
68578;SHT31;61668;45.388;11.784;2023-03-14T03:13:25;11.09;76.13
68578;SHT31;61668;45.388;11.784;2023-03-14T03:15:51;11.12;76.21
68578;SHT31;61668;45.388;11.784;2023-03-14T03:18:17;11.13;76.29
68578;SHT31;61668;45.388;11.784;2023-03-14T03:20:43;11.15;76.32
68578;SHT31;61668;45.388;11.784;2023-03-14T03:23:09;11.16;76.78
68578;SHT31;61668;45.388;11.784;2023-03-14T03:25:35;11.17;76.94
68578;SHT31;61668;45.388;11.784;2023-03-14T03:28:01;11.18;77.05
68578;SHT31;61668;45.388;11.784;2023-03-14T03:30:32;11.18;77.27
68578;SHT31;61668;45.388;11.784;2023-03-14T03:33:08;11.19;77.61
68578;SHT31;61668;45.388;11.784;2023-03-14T03:35:35;11.20;77.77
68578;SHT31;61668;45.388;11.784;2023-03-14T03:38:10;11.19;77.91
68578;SHT31;61668;45.388;11.784;2023-03-14T03:40:36;11.21;77.99
68578;SHT31;61668;45.388;11.784;2023-03-14T03:43:02;11.22;78.16
68578;SHT31;61668;45.388;11.784;2023-03-14T03:45:29;11.23;78.34
68578;SHT31;61668;45.388;11.784;2023-03-14T03:47:55;11.24;78.36
68578;SHT31;61668;45.388;11.784;2023-03-14T03:50:21;11.27;78.37
68578;SHT31;61668;45.388;11.784;2023-03-14T03:52:47;11.28;78.42
68578;SHT31;61668;45.388;11.784;2023-03-14T03:55:13;11.30;78.51
68578;SHT31;61668;45.388;11.784;2023-03-14T03:57:38;11.31;78.63
68578;SHT31;61668;45.388;11.784;2023-03-14T04:00:07;11.32;78.58
68578;SHT31;61668;45.388;11.784;2023-03-14T04:02:37;11.34;78.63
68578;SHT31;61668;45.388;11.784;2023-03-14T04:05:02;11.35;78.74
68578;SHT31;61668;45.388;11.784;2023-03-14T04:07:31;11.36;78.82
68578;SHT31;61668;45.388;11.784;2023-03-14T04:09:58;11.36;79.00
68578;SHT31;61668;45.388;11.784;2023-03-14T04:12:23;11.37;79.21
68578;SHT31;61668;45.388;11.784;2023-03-14T04:14:49;11.38;79.28
68578;SHT31;61668;45.388;11.784;2023-03-14T04:17:15;11.40;79.39
68578;SHT31;61668;45.388;11.784;2023-03-14T04:19:40;11.40;79.69
68578;SHT31;61668;45.388;11.784;2023-03-14T04:22:07;11.41;79.75
68578;SHT31;61668;45.388;11.784;2023-03-14T04:24:34;11.42;79.87
68578;SHT31;61668;45.388;11.784;2023-03-14T04:27:00;11.43;79.92
68578;SHT31;61668;45.388;11.784;2023-03-14T04:29:26;11.44;80.06
68578;SHT31;61668;45.388;11.784;2023-03-14T04:31:51;11.45;80.22
68578;SHT31;61668;45.388;11.784;2023-03-14T04:34:17;11.46;80.27
68578;SHT31;61668;45.388;11.784;2023-03-14T04:36:43;11.47;80.11
68578;SHT31;61668;45.388;11.784;2023-03-14T04:39:09;11.48;80.31
68578;SHT31;61668;45.388;11.784;2023-03-14T04:41:34;11.48;80.34
68578;SHT31;61668;45.388;11.784;2023-03-14T04:44:00;11.49;80.69
68578;SHT31;61668;45.388;11.784;2023-03-14T04:46:26;11.50;80.56
68578;SHT31;61668;45.388;11.784;2023-03-14T04:48:51;11.49;80.67
68578;SHT31;61668;45.388;11.784;2023-03-14T04:51:17;11.51;80.72
68578;SHT31;61668;45.388;11.784;2023-03-14T04:53:43;11.51;80.75
68578;SHT31;61668;45.388;11.784;2023-03-14T04:56:08;11.52;80.78
68578;SHT31;61668;45.388;11.784;2023-03-14T04:58:34;11.53;80.80
68578;SHT31;61668;45.388;11.784;2023-03-14T05:01:04;11.54;81.06
68578;SHT31;61668;45.388;11.784;2023-03-14T05:03:31;11.55;81.11
68578;SHT31;61668;45.388;11.784;2023-03-14T05:05:56;11.55;81.04
68578;SHT31;61668;45.388;11.784;2023-03-14T05:11:03;11.57;80.98
68578;SHT31;61668;45.388;11.784;2023-03-14T05:13:29;11.56;81.08
68578;SHT31;61668;45.388;11.784;2023-03-14T05:16:02;11.56;81.01
68578;SHT31;61668;45.388;11.784;2023-03-14T05:18:31;11.57;81.18
68578;SHT31;61668;45.388;11.784;2023-03-14T05:20:57;11.57;81.12
68578;SHT31;61668;45.388;11.784;2023-03-14T05:23:22;11.57;81.26
68578;SHT31;61668;45.388;11.784;2023-03-14T05:25:48;11.56;81.23
68578;SHT31;61668;45.388;11.784;2023-03-14T05:28:14;11.57;81.26
68578;SHT31;61668;45.388;11.784;2023-03-14T05:30:39;11.57;81.14
68578;SHT31;61668;45.388;11.784;2023-03-14T05:33:05;11.57;81.16
68578;SHT31;61668;45.388;11.784;2023-03-14T05:35:31;11.58;81.17
68578;SHT31;61668;45.388;11.784;2023-03-14T05:37:56;11.58;81.11
68578;SHT31;61668;45.388;11.784;2023-03-14T05:40:22;11.59;81.11
68578;SHT31;61668;45.388;11.784;2023-03-14T05:42:48;11.59;81.00
68578;SHT31;61668;45.388;11.784;2023-03-14T05:45:14;11.60;80.93
68578;SHT31;61668;45.388;11.784;2023-03-14T05:47:39;11.60;81.14
68578;SHT31;61668;45.388;11.784;2023-03-14T05:50:05;11.60;80.99
68578;SHT31;61668;45.388;11.784;2023-03-14T05:52:32;11.59;80.94
68578;SHT31;61668;45.388;11.784;2023-03-14T05:54:57;11.59;80.96
68578;SHT31;61668;45.388;11.784;2023-03-14T05:57:23;11.60;80.78
68578;SHT31;61668;45.388;11.784;2023-03-14T05:59:49;11.60;80.62
68578;SHT31;61668;45.388;11.784;2023-03-14T06:02:14;11.61;80.51
68578;SHT31;61668;45.388;11.784;2023-03-14T06:04:40;11.61;80.43
68578;SHT31;61668;45.388;11.784;2023-03-14T06:07:06;11.60;80.43
68578;SHT31;61668;45.388;11.784;2023-03-14T06:09:31;11.60;80.30
68578;SHT31;61668;45.388;11.784;2023-03-14T06:11:57;11.60;80.28
68578;SHT31;61668;45.388;11.784;2023-03-14T06:14:23;11.61;80.12
68578;SHT31;61668;45.388;11.784;2023-03-14T06:16:48;11.62;80.11
68578;SHT31;61668;45.388;11.784;2023-03-14T06:19:15;11.63;80.09
68578;SHT31;61668;45.388;11.784;2023-03-14T06:21:41;11.64;80.05
68578;SHT31;61668;45.388;11.784;2023-03-14T06:24:07;11.66;80.03
68578;SHT31;61668;45.388;11.784;2023-03-14T06:26:33;11.66;80.07
68578;SHT31;61668;45.388;11.784;2023-03-14T06:28:59;11.67;79.98
68578;SHT31;61668;45.388;11.784;2023-03-14T06:31:29;11.67;79.95
68578;SHT31;61668;45.388;11.784;2023-03-14T06:33:56;11.67;79.95
68578;SHT31;61668;45.388;11.784;2023-03-14T06:36:21;11.67;80.00
68578;SHT31;61668;45.388;11.784;2023-03-14T06:38:50;11.68;80.12
68578;SHT31;61668;45.388;11.784;2023-03-14T06:41:16;11.70;80.06
68578;SHT31;61668;45.388;11.784;2023-03-14T06:43:42;11.69;80.15
68578;SHT31;61668;45.388;11.784;2023-03-14T06:46:08;11.70;80.22
68578;SHT31;61668;45.388;11.784;2023-03-14T06:48:34;11.69;80.35
68578;SHT31;61668;45.388;11.784;2023-03-14T06:51:00;11.67;80.56
68578;SHT31;61668;45.388;11.784;2023-03-14T06:53:26;11.65;80.78
68578;SHT31;61668;45.388;11.784;2023-03-14T06:55:51;11.63;80.91
68578;SHT31;61668;45.388;11.784;2023-03-14T06:58:17;11.61;80.96
68578;SHT31;61668;45.388;11.784;2023-03-14T07:00:43;11.57;81.17
68578;SHT31;61668;45.388;11.784;2023-03-14T07:03:09;11.54;81.44
68578;SHT31;61668;45.388;11.784;2023-03-14T07:05:36;11.49;81.48
68578;SHT31;61668;45.388;11.784;2023-03-14T07:08:03;11.46;81.56
68578;SHT31;61668;45.388;11.784;2023-03-14T07:10:29;11.44;81.71
68578;SHT31;61668;45.388;11.784;2023-03-14T07:12:55;11.42;82.02
68578;SHT31;61668;45.388;11.784;2023-03-14T07:15:20;11.38;82.21
68578;SHT31;61668;45.388;11.784;2023-03-14T07:17:46;11.35;82.35
68578;SHT31;61668;45.388;11.784;2023-03-14T07:20:13;11.30;82.40
68578;SHT31;61668;45.388;11.784;2023-03-14T07:22:39;11.26;82.39
68578;SHT31;61668;45.388;11.784;2023-03-14T07:25:05;11.22;82.44
68578;SHT31;61668;45.388;11.784;2023-03-14T07:27:31;11.20;82.51
68578;SHT31;61668;45.388;11.784;2023-03-14T07:29:57;11.18;82.73
68578;SHT31;61668;45.388;11.784;2023-03-14T07:32:23;11.16;82.93
68578;SHT31;61668;45.388;11.784;2023-03-14T07:34:48;11.16;82.89
68578;SHT31;61668;45.388;11.784;2023-03-14T07:37:15;11.17;82.98
68578;SHT31;61668;45.388;11.784;2023-03-14T07:39:41;11.16;83.20
68578;SHT31;61668;45.388;11.784;2023-03-14T07:42:07;11.17;83.13
68578;SHT31;61668;45.388;11.784;2023-03-14T07:44:32;11.19;83.16
68578;SHT31;61668;45.388;11.784;2023-03-14T07:46:58;11.19;83.29
68578;SHT31;61668;45.388;11.784;2023-03-14T07:49:24;11.20;83.40
68578;SHT31;61668;45.388;11.784;2023-03-14T07:51:50;11.22;83.31
68578;SHT31;61668;45.388;11.784;2023-03-14T07:54:15;11.23;83.40
68578;SHT31;61668;45.388;11.784;2023-03-14T07:56:41;11.24;83.52
68578;SHT31;61668;45.388;11.784;2023-03-14T07:59:07;11.24;83.63
68578;SHT31;61668;45.388;11.784;2023-03-14T08:01:33;11.25;83.86
68578;SHT31;61668;45.388;11.784;2023-03-14T08:03:59;11.28;83.62
68578;SHT31;61668;45.388;11.784;2023-03-14T08:06:24;11.29;83.79
68578;SHT31;61668;45.388;11.784;2023-03-14T08:08:50;11.30;83.71
68578;SHT31;61668;45.388;11.784;2023-03-14T08:11:16;11.32;83.87
68578;SHT31;61668;45.388;11.784;2023-03-14T08:13:42;11.32;83.87
68578;SHT31;61668;45.388;11.784;2023-03-14T08:16:14;11.33;83.86
68578;SHT31;61668;45.388;11.784;2023-03-14T08:18:44;11.35;83.81
68578;SHT31;61668;45.388;11.784;2023-03-14T08:21:13;11.36;83.71
68578;SHT31;61668;45.388;11.784;2023-03-14T08:23:39;11.40;83.81
68578;SHT31;61668;45.388;11.784;2023-03-14T08:26:05;11.41;83.91
68578;SHT31;61668;45.388;11.784;2023-03-14T08:28:31;11.43;83.90
68578;SHT31;61668;45.388;11.784;2023-03-14T08:30:58;11.47;83.94
68578;SHT31;61668;45.388;11.784;2023-03-14T08:33:26;11.52;83.93
68578;SHT31;61668;45.388;11.784;2023-03-14T08:35:57;11.56;83.93
68578;SHT31;61668;45.388;11.784;2023-03-14T08:38:25;11.60;83.94
68578;SHT31;61668;45.388;11.784;2023-03-14T08:40:55;11.65;83.86
68578;SHT31;61668;45.388;11.784;2023-03-14T08:43:24;11.71;83.86
68578;SHT31;61668;45.388;11.784;2023-03-14T08:45:51;11.77;83.82
68578;SHT31;61668;45.388;11.784;2023-03-14T08:48:17;11.78;83.83
68578;SHT31;61668;45.388;11.784;2023-03-14T08:50:44;11.80;83.93
68578;SHT31;61668;45.388;11.784;2023-03-14T08:53:11;11.79;83.94
68578;SHT31;61668;45.388;11.784;2023-03-14T08:55:36;11.80;83.94
68578;SHT31;61668;45.388;11.784;2023-03-14T08:58:02;11.80;84.00
68578;SHT31;61668;45.388;11.784;2023-03-14T09:00:28;11.80;83.99
68578;SHT31;61668;45.388;11.784;2023-03-14T09:02:53;11.80;83.90
68578;SHT31;61668;45.388;11.784;2023-03-14T09:05:19;11.81;83.91
68578;SHT31;61668;45.388;11.784;2023-03-14T09:07:45;11.81;83.99
68578;SHT31;61668;45.388;11.784;2023-03-14T09:10:11;11.82;84.00
68578;SHT31;61668;45.388;11.784;2023-03-14T09:12:37;11.85;83.99
68578;SHT31;61668;45.388;11.784;2023-03-14T09:15:03;11.88;83.97
68578;SHT31;61668;45.388;11.784;2023-03-14T09:17:29;11.92;84.15
68578;SHT31;61668;45.388;11.784;2023-03-14T09:19:55;11.92;84.20
68578;SHT31;61668;45.388;11.784;2023-03-14T09:22:20;11.93;84.12
68578;SHT31;61668;45.388;11.784;2023-03-14T09:24:46;11.96;84.27
68578;SHT31;61668;45.388;11.784;2023-03-14T09:27:12;11.96;84.10
68578;SHT31;61668;45.388;11.784;2023-03-14T09:29:38;11.95;84.13
68578;SHT31;61668;45.388;11.784;2023-03-14T09:32:04;11.94;84.14
68578;SHT31;61668;45.388;11.784;2023-03-14T09:34:30;11.93;84.08
68578;SHT31;61668;45.388;11.784;2023-03-14T09:36:55;11.94;84.01
68578;SHT31;61668;45.388;11.784;2023-03-14T09:39:22;11.97;84.08
68578;SHT31;61668;45.388;11.784;2023-03-14T09:41:49;12.00;84.17
68578;SHT31;61668;45.388;11.784;2023-03-14T09:44:27;12.02;84.20
68578;SHT31;61668;45.388;11.784;2023-03-14T09:47:00;12.02;84.04
68578;SHT31;61668;45.388;11.784;2023-03-14T09:49:37;12.05;84.00
68578;SHT31;61668;45.388;11.784;2023-03-14T09:52:23;12.07;83.97
68578;SHT31;61668;45.388;11.784;2023-03-14T09:54:58;12.09;84.05
68578;SHT31;61668;45.388;11.784;2023-03-14T09:57:29;12.10;84.12
68578;SHT31;61668;45.388;11.784;2023-03-14T10:00:00;12.10;84.23
68578;SHT31;61668;45.388;11.784;2023-03-14T10:02:38;12.11;84.28
68578;SHT31;61668;45.388;11.784;2023-03-14T10:05:13;12.11;84.15
68578;SHT31;61668;45.388;11.784;2023-03-14T10:07:41;12.11;84.21
68578;SHT31;61668;45.388;11.784;2023-03-14T10:10:11;12.14;84.21
68578;SHT31;61668;45.388;11.784;2023-03-14T10:15:46;12.20;84.27
68578;SHT31;61668;45.388;11.784;2023-03-14T10:18:33;12.22;84.30
68578;SHT31;61668;45.388;11.784;2023-03-14T10:21:20;12.23;84.38
68578;SHT31;61668;45.388;11.784;2023-03-14T10:23:54;12.24;84.36
68578;SHT31;61668;45.388;11.784;2023-03-14T10:26:35;12.26;84.32
68578;SHT31;61668;45.388;11.784;2023-03-14T10:29:04;12.29;84.31
68578;SHT31;61668;45.388;11.784;2023-03-14T10:32:10;12.30;84.30
68578;SHT31;61668;45.388;11.784;2023-03-14T10:34:33;12.31;84.34
68578;SHT31;61668;45.388;11.784;2023-03-14T10:37:07;12.33;84.34
68578;SHT31;61668;45.388;11.784;2023-03-14T10:39:51;12.35;84.45
68578;SHT31;61668;45.388;11.784;2023-03-14T10:42:21;12.33;84.50
68578;SHT31;61668;45.388;11.784;2023-03-14T10:44:56;12.35;84.57
68578;SHT31;61668;45.388;11.784;2023-03-14T10:47:48;12.35;84.54
68578;SHT31;61668;45.388;11.784;2023-03-14T10:50:23;12.36;84.55
68578;SHT31;61668;45.388;11.784;2023-03-14T10:52:51;12.36;84.65
68578;SHT31;61668;45.388;11.784;2023-03-14T10:55:19;12.36;84.72
68578;SHT31;61668;45.388;11.784;2023-03-14T10:57:45;12.36;84.72
68578;SHT31;61668;45.388;11.784;2023-03-14T11:00:15;12.38;84.84
68578;SHT31;61668;45.388;11.784;2023-03-14T11:05:46;12.38;84.97
68578;SHT31;61668;45.388;11.784;2023-03-14T11:08:26;12.41;85.01
68578;SHT31;61668;45.388;11.784;2023-03-14T11:17:03;12.56;84.88
68578;SHT31;61668;45.388;11.784;2023-03-14T11:31:23;12.58;84.32
68578;SHT31;61668;45.388;11.784;2023-03-14T11:34:01;12.57;84.29
68578;SHT31;61668;45.388;11.784;2023-03-14T11:36:41;12.54;84.15
68578;SHT31;61668;45.388;11.784;2023-03-14T11:39:18;12.52;84.12
68578;SHT31;61668;45.388;11.784;2023-03-14T11:41:48;12.51;84.05
68578;SHT31;61668;45.388;11.784;2023-03-14T11:44:32;12.51;84.07
68578;SHT31;61668;45.388;11.784;2023-03-14T11:47:13;12.50;83.95
68578;SHT31;61668;45.388;11.784;2023-03-14T11:50:00;12.51;83.93
68578;SHT31;61668;45.388;11.784;2023-03-14T11:52:55;12.55;83.90
68578;SHT31;61668;45.388;11.784;2023-03-14T11:55:31;12.61;83.83
68578;SHT31;61668;45.388;11.784;2023-03-14T11:58:08;12.67;83.78
68578;SHT31;61668;45.388;11.784;2023-03-14T12:00:35;12.71;83.44
68578;SHT31;61668;45.388;11.784;2023-03-14T12:03:14;12.74;83.27
68578;SHT31;61668;45.388;11.784;2023-03-14T12:11:06;12.84;82.98
68578;SHT31;61668;45.388;11.784;2023-03-14T12:13:57;12.89;83.04
68578;SHT31;61668;45.388;11.784;2023-03-14T12:18:49;13.09;82.86
68578;SHT31;61668;45.388;11.784;2023-03-14T12:21:17;13.15;82.74
68578;SHT31;61668;45.388;11.784;2023-03-14T12:23:48;13.18;82.62
68578;SHT31;61668;45.388;11.784;2023-03-14T12:26:19;13.18;82.31
68578;SHT31;61668;45.388;11.784;2023-03-14T12:39:30;13.26;82.09
68578;SHT31;61668;45.388;11.784;2023-03-14T12:45:14;13.29;81.79
68578;SHT31;61668;45.388;11.784;2023-03-14T12:50:26;13.41;82.07
68578;SHT31;61668;45.388;11.784;2023-03-14T12:58:53;13.61;81.48
68578;SHT31;61668;45.388;11.784;2023-03-14T13:01:31;13.75;81.71
68578;SHT31;61668;45.388;11.784;2023-03-14T13:04:17;13.89;81.33
68578;SHT31;61668;45.388;11.784;2023-03-14T13:09:49;14.12;80.73
68578;SHT31;61668;45.388;11.784;2023-03-14T13:12:36;14.22;80.21
68578;SHT31;61668;45.388;11.784;2023-03-14T13:15:43;14.27;80.08
68578;SHT31;61668;45.388;11.784;2023-03-14T13:23:37;14.38;79.20
68578;SHT31;61668;45.388;11.784;2023-03-14T13:26:05;14.40;79.16
68578;SHT31;61668;45.388;11.784;2023-03-14T13:28:38;14.44;78.96
68578;SHT31;61668;45.388;11.784;2023-03-14T13:31:04;14.47;78.38
68578;SHT31;61668;45.388;11.784;2023-03-14T13:33:31;14.49;78.17
68578;SHT31;61668;45.388;11.784;2023-03-14T13:36:01;14.52;78.39
68578;SHT31;61668;45.388;11.784;2023-03-14T13:38:30;14.52;78.19
68578;SHT31;61668;45.388;11.784;2023-03-14T13:41:00;14.52;78.32
68578;SHT31;61668;45.388;11.784;2023-03-14T13:43:31;14.55;78.26
68578;SHT31;61668;45.388;11.784;2023-03-14T13:46:05;14.57;77.90
68578;SHT31;61668;45.388;11.784;2023-03-14T13:48:43;14.60;77.83
68578;SHT31;61668;45.388;11.784;2023-03-14T13:51:13;14.64;77.65
68578;SHT31;61668;45.388;11.784;2023-03-14T13:53:44;14.66;77.56
68578;SHT31;61668;45.388;11.784;2023-03-14T13:56:19;14.70;77.48
68578;SHT31;61668;45.388;11.784;2023-03-14T13:58:48;14.73;77.50
68578;SHT31;61668;45.388;11.784;2023-03-14T14:01:33;14.75;77.37
68578;SHT31;61668;45.388;11.784;2023-03-14T14:04:06;14.75;77.09
68578;SHT31;61668;45.388;11.784;2023-03-14T14:06:38;14.74;76.96
68578;SHT31;61668;45.388;11.784;2023-03-14T14:09:19;14.71;76.87
68578;SHT31;61668;45.388;11.784;2023-03-14T14:14:32;14.66;77.41
68578;SHT31;61668;45.388;11.784;2023-03-14T14:17:07;14.66;77.40
68578;SHT31;61668;45.388;11.784;2023-03-14T14:19:37;14.65;77.47
68578;SHT31;61668;45.388;11.784;2023-03-14T14:22:05;14.61;77.41
68578;SHT31;61668;45.388;11.784;2023-03-14T14:24:32;14.57;77.45
68578;SHT31;61668;45.388;11.784;2023-03-14T14:27:00;14.52;77.50
68578;SHT31;61668;45.388;11.784;2023-03-14T14:29:44;14.45;77.50
68578;SHT31;61668;45.388;11.784;2023-03-14T14:32:23;14.39;77.55
68578;SHT31;61668;45.388;11.784;2023-03-14T14:37:20;14.33;77.83
68578;SHT31;61668;45.388;11.784;2023-03-14T14:39:54;14.28;77.84
68578;SHT31;61668;45.388;11.784;2023-03-14T14:42:31;14.23;77.90
68578;SHT31;61668;45.388;11.784;2023-03-14T14:44:57;14.20;78.00
68578;SHT31;61668;45.388;11.784;2023-03-14T14:47:25;14.17;78.05
68578;SHT31;61668;45.388;11.784;2023-03-14T14:49:54;14.18;78.05
68578;SHT31;61668;45.388;11.784;2023-03-14T14:52:37;14.20;77.98
68578;SHT31;61668;45.388;11.784;2023-03-14T14:55:16;14.26;77.92
68578;SHT31;61668;45.388;11.784;2023-03-14T14:57:51;14.34;77.83
68578;SHT31;61668;45.388;11.784;2023-03-14T15:00:21;14.44;77.60
68578;SHT31;61668;45.388;11.784;2023-03-14T15:02:52;14.53;77.48
68578;SHT31;61668;45.388;11.784;2023-03-14T15:05:21;14.63;77.35
68578;SHT31;61668;45.388;11.784;2023-03-14T15:07:50;14.69;76.99
68578;SHT31;61668;45.388;11.784;2023-03-14T15:10:17;14.74;76.69
68578;SHT31;61668;45.388;11.784;2023-03-14T15:12:46;14.78;76.53
68578;SHT31;61668;45.388;11.784;2023-03-14T15:15:13;14.83;76.37
68578;SHT31;61668;45.388;11.784;2023-03-14T15:17:40;14.90;76.33
68578;SHT31;61668;45.388;11.784;2023-03-14T15:20:09;14.96;76.08
68578;SHT31;61668;45.388;11.784;2023-03-14T15:22:40;15.01;75.64
68578;SHT31;61668;45.388;11.784;2023-03-14T15:25:07;15.02;75.29
68578;SHT31;61668;45.388;11.784;2023-03-14T15:27:35;15.03;75.39
68578;SHT31;61668;45.388;11.784;2023-03-14T15:30:09;15.05;75.18
68578;SHT31;61668;45.388;11.784;2023-03-14T15:32:39;15.05;75.05
68578;SHT31;61668;45.388;11.784;2023-03-14T15:35:05;15.03;75.04
68578;SHT31;61668;45.388;11.784;2023-03-14T15:37:32;14.98;75.01
68578;SHT31;61668;45.388;11.784;2023-03-14T15:39:58;14.95;74.82
68578;SHT31;61668;45.388;11.784;2023-03-14T15:42:24;14.89;75.01
68578;SHT31;61668;45.388;11.784;2023-03-14T15:44:50;14.83;75.09
68578;SHT31;61668;45.388;11.784;2023-03-14T15:47:15;14.77;74.92
68578;SHT31;61668;45.388;11.784;2023-03-14T15:49:42;14.71;74.83
68578;SHT31;61668;45.388;11.784;2023-03-14T15:52:09;14.65;74.89
68578;SHT31;61668;45.388;11.784;2023-03-14T15:54:35;14.57;74.99
68578;SHT31;61668;45.388;11.784;2023-03-14T15:57:01;14.50;74.99
68578;SHT31;61668;45.388;11.784;2023-03-14T15:59:27;14.44;75.00
68578;SHT31;61668;45.388;11.784;2023-03-14T16:01:53;14.38;75.25
68578;SHT31;61668;45.388;11.784;2023-03-14T16:04:19;14.33;75.51
68578;SHT31;61668;45.388;11.784;2023-03-14T16:06:44;14.29;75.63
68578;SHT31;61668;45.388;11.784;2023-03-14T16:09:12;14.26;75.75
68578;SHT31;61668;45.388;11.784;2023-03-14T16:11:38;14.23;75.95
68578;SHT31;61668;45.388;11.784;2023-03-14T16:14:04;14.19;76.05
68578;SHT31;61668;45.388;11.784;2023-03-14T16:16:31;14.17;76.24
68578;SHT31;61668;45.388;11.784;2023-03-14T16:18:56;14.15;76.31
68578;SHT31;61668;45.388;11.784;2023-03-14T16:21:22;14.11;76.43
68578;SHT31;61668;45.388;11.784;2023-03-14T16:23:48;14.06;76.49
68578;SHT31;61668;45.388;11.784;2023-03-14T16:26:15;14.01;76.64
68578;SHT31;61668;45.388;11.784;2023-03-14T16:28:44;13.97;76.82
68578;SHT31;61668;45.388;11.784;2023-03-14T16:31:13;13.94;76.95
68578;SHT31;61668;45.388;11.784;2023-03-14T16:33:42;13.89;77.10
68578;SHT31;61668;45.388;11.784;2023-03-14T16:36:09;13.88;77.23
68578;SHT31;61668;45.388;11.784;2023-03-14T16:38:38;13.85;77.29
68578;SHT31;61668;45.388;11.784;2023-03-14T16:41:09;13.82;77.46
68578;SHT31;61668;45.388;11.784;2023-03-14T16:43:37;13.79;77.61